createdAt,value
2022-09-28T00:00:41.826Z,97340.69
2022-09-28T00:03:09.137Z,97340.19
2022-09-28T00:05:35.700Z,97334.44
2022-09-28T00:08:02.146Z,97332.06
2022-09-28T00:10:28.502Z,97332.25
2022-09-28T00:12:57.880Z,97325.59
2022-09-28T00:15:24.645Z,97315.75
2022-09-28T00:17:50.991Z,97321.56
2022-09-28T00:20:18.038Z,97310.16
2022-09-28T00:22:44.383Z,97313.00
2022-09-28T00:25:10.753Z,97316.50
2022-09-28T00:27:37.074Z,97315.91
2022-09-28T00:30:04.317Z,97321.19
2022-09-28T00:32:30.670Z,97324.56
2022-09-28T00:34:57.046Z,97325.91
2022-09-28T00:37:23.469Z,97321.91
2022-09-28T00:39:50.190Z,97316.56
2022-09-28T00:42:20.133Z,97322.94
2022-09-28T00:44:47.823Z,97320.09
2022-09-28T00:47:38.366Z,97323.22
2022-09-28T00:50:22.602Z,97315.28
2022-09-28T00:53:00.427Z,97328.63
2022-09-28T00:55:34.461Z,97329.81
2022-09-28T00:58:05.537Z,97321.91
2022-09-28T01:00:32.173Z,97319.06
2022-09-28T01:02:59.680Z,97320.56
2022-09-28T01:05:27.455Z,97315.84
2022-09-28T01:07:56.232Z,97325.59
2022-09-28T01:10:22.751Z,97319.50
2022-09-28T01:12:49.116Z,97323.00
2022-09-28T01:15:15.686Z,97310.63
2022-09-28T01:18:27.802Z,97314.34
2022-09-28T01:21:22.199Z,97314.69
2022-09-28T01:24:13.506Z,97310.44
2022-09-28T01:26:48.471Z,97307.13
2022-09-28T01:29:44.951Z,97317.34
2022-09-28T01:32:31.494Z,97313.19
2022-09-28T01:35:00.627Z,97307.66
2022-09-28T01:37:37.765Z,97311.84
2022-09-28T01:40:06.898Z,97312.66
2022-09-28T01:42:35.923Z,97306.66
2022-09-28T01:45:09.363Z,97289.13
2022-09-28T01:47:39.823Z,97291.34
2022-09-28T01:50:14.409Z,97289.88
2022-09-28T01:52:56.742Z,97294.25
2022-09-28T01:55:35.799Z,97285.59
2022-09-28T01:58:10.700Z,97287.78
2022-09-28T02:00:41.439Z,97288.50
2022-09-28T02:03:12.351Z,97292.34
2022-09-28T02:05:42.274Z,97299.34
2022-09-28T02:08:28.287Z,97299.19
2022-09-28T02:11:01.353Z,97294.84
2022-09-28T02:13:33.211Z,97296.16
2022-09-28T02:16:16.911Z,97290.34
2022-09-28T02:18:44.874Z,97294.50
2022-09-28T02:21:16.122Z,97286.06
2022-09-28T02:23:53.809Z,97287.13
2022-09-28T02:26:24.675Z,97288.97
2022-09-28T02:28:51.057Z,97293.97
2022-09-28T02:31:17.652Z,97285.47
2022-09-28T02:33:44.875Z,97296.50
2022-09-28T02:36:11.486Z,97287.00
2022-09-28T02:38:38.246Z,97291.53
2022-09-28T02:41:31.678Z,97289.84
2022-09-28T02:44:16.448Z,97288.84
2022-09-28T02:46:49.134Z,97294.84
2022-09-28T02:49:29.318Z,97297.69
2022-09-28T02:52:17.537Z,97291.88
2022-09-28T02:55:02.732Z,97302.19
2022-09-28T02:57:57.506Z,97294.66
2022-09-28T03:00:24.349Z,97307.84
2022-09-28T03:02:57.269Z,97306.47
2022-09-28T03:05:32.684Z,97305.81
2022-09-28T03:08:03.585Z,97303.63
2022-09-28T03:10:44.640Z,97306.47
2022-09-28T03:13:13.663Z,97304.78
2022-09-28T03:15:45.256Z,97311.13
2022-09-28T03:18:14.355Z,97303.81
2022-09-28T03:20:40.722Z,97309.69
2022-09-28T03:23:23.798Z,97312.53
2022-09-28T03:25:51.399Z,97298.38
2022-09-28T03:28:17.831Z,97305.47
2022-09-28T03:30:44.182Z,97304.19
2022-09-28T03:33:10.526Z,97307.84
2022-09-28T03:35:36.880Z,97308.03
2022-09-28T03:38:03.351Z,97306.38
2022-09-28T03:40:29.797Z,97305.53
2022-09-28T03:42:56.169Z,97304.88
2022-09-28T03:45:22.548Z,97305.69
2022-09-28T03:47:48.974Z,97304.34
2022-09-28T03:50:15.704Z,97305.19
2022-09-28T03:52:42.191Z,97309.53
2022-09-28T03:55:09.073Z,97300.59
2022-09-28T03:57:35.426Z,97306.97
2022-09-28T04:00:04.105Z,97303.44
2022-09-28T04:02:30.617Z,97308.16
2022-09-28T04:04:56.997Z,97310.59
2022-09-28T04:07:24.086Z,97310.28
2022-09-28T04:09:52.383Z,97309.75
2022-09-28T04:12:18.759Z,97301.44
2022-09-28T04:14:45.081Z,97296.75
2022-09-28T04:17:11.435Z,97299.72
2022-09-28T04:19:37.806Z,97295.75
2022-09-28T04:22:04.826Z,97297.13
2022-09-28T04:24:31.559Z,97300.59
2022-09-28T04:27:17.866Z,97302.28
2022-09-28T04:29:44.240Z,97302.28
2022-09-28T04:32:11.372Z,97300.59
2022-09-28T04:34:40.761Z,97303.44
2022-09-28T04:37:09.611Z,97310.53
2022-09-28T04:39:35.935Z,97307.97
2022-09-28T04:42:02.284Z,97316.81
2022-09-28T04:44:28.637Z,97310.94
2022-09-28T04:46:55.735Z,97310.47
2022-09-28T04:49:22.520Z,97317.84
2022-09-28T04:51:48.862Z,97319.47
2022-09-28T04:54:15.269Z,97315.22
2022-09-28T04:56:41.778Z,97317.88
2022-09-28T04:59:08.140Z,97315.34
2022-09-28T05:01:34.602Z,97321.38
2022-09-28T05:04:01.325Z,97326.25
2022-09-28T05:06:30.407Z,97326.25
2022-09-28T05:08:57.430Z,97325.38
2022-09-28T05:11:24.034Z,97324.16
2022-09-28T05:13:50.562Z,97329.22
2022-09-28T05:16:17.557Z,97332.53
2022-09-28T05:18:43.965Z,97335.53
2022-09-28T05:21:15.648Z,97341.25
2022-09-28T05:23:46.743Z,97329.56
2022-09-28T05:26:13.710Z,97338.22
2022-09-28T05:28:40.086Z,97336.41
2022-09-28T05:31:06.434Z,97338.44
2022-09-28T05:33:33.392Z,97337.56
2022-09-28T05:36:01.623Z,97346.94
2022-09-28T05:38:28.907Z,97340.06
2022-09-28T05:40:56.233Z,97337.75
2022-09-28T05:43:22.715Z,97345.75
2022-09-28T05:45:53.023Z,97340.97
2022-09-28T05:48:21.911Z,97347.94
2022-09-28T05:50:52.474Z,97346.94
2022-09-28T05:53:19.489Z,97350.63
2022-09-28T05:55:46.808Z,97347.78
2022-09-28T05:58:13.286Z,97345.75
2022-09-28T06:00:40.078Z,97344.41
2022-09-28T06:03:11.291Z,97341.03
2022-09-28T06:05:41.693Z,97349.34
2022-09-28T06:08:10.570Z,97350.88
2022-09-28T06:10:37.500Z,97339.25
2022-09-28T06:13:04.308Z,97339.59
2022-09-28T06:15:33.607Z,97346.91
2022-09-28T06:18:05.581Z,97352.72
2022-09-28T06:20:35.515Z,97351.22
2022-09-28T06:23:02.171Z,97348.34
2022-09-28T06:25:28.642Z,97354.81
2022-09-28T06:27:58.931Z,97356.00
2022-09-28T06:30:27.119Z,97353.34
2022-09-28T06:32:58.431Z,97361.47
2022-09-28T06:35:27.341Z,97365.16
2022-09-28T06:37:53.920Z,97363.94
2022-09-28T06:40:21.368Z,97369.78
2022-09-28T06:42:56.936Z,97372.09
2022-09-28T06:45:25.461Z,97370.00
2022-09-28T06:47:57.392Z,97376.09
2022-09-28T06:50:25.688Z,97373.06
2022-09-28T06:52:53.695Z,97371.34
2022-09-28T06:55:21.420Z,97371.69
2022-09-28T06:57:48.226Z,97374.94
2022-09-28T07:00:15.230Z,97372.50
2022-09-28T07:02:41.709Z,97382.25
2022-09-28T07:05:12.528Z,97383.91
2022-09-28T07:07:40.282Z,97387.88
2022-09-28T07:10:07.027Z,97396.91
2022-09-28T07:12:35.715Z,97390.06
2022-09-28T07:15:02.199Z,97393.50
2022-09-28T07:17:28.677Z,97398.22
2022-09-28T07:20:00.151Z,97402.44
2022-09-28T07:22:40.708Z,97407.59
2022-09-28T07:25:09.574Z,97409.59
2022-09-28T07:27:37.181Z,97407.59
2022-09-28T07:30:05.566Z,97408.19
2022-09-28T07:32:34.906Z,97409.25
2022-09-28T07:35:01.510Z,97415.72
2022-09-28T07:37:27.840Z,97418.72
2022-09-28T07:40:12.502Z,97415.81
2022-09-28T07:42:38.850Z,97422.25
2022-09-28T07:45:06.923Z,97433.50
2022-09-28T07:47:35.258Z,97431.69
2022-09-28T07:50:01.849Z,97437.09
2022-09-28T07:52:28.742Z,97435.81
2022-09-28T07:54:55.472Z,97436.47
2022-09-28T07:57:22.621Z,97436.16
2022-09-28T07:59:50.122Z,97432.56
2022-09-28T08:02:20.349Z,97442.16
2022-09-28T08:04:47.894Z,97448.03
2022-09-28T08:07:17.126Z,97443.16
2022-09-28T08:09:46.184Z,97438.78
2022-09-28T08:12:14.100Z,97445.78
2022-09-28T08:14:41.290Z,97446.53
2022-09-28T08:17:07.725Z,97437.97
2022-09-28T08:19:52.629Z,97448.91
2022-09-28T08:22:19.872Z,97441.34
2022-09-28T08:24:47.191Z,97456.28
2022-09-28T08:27:16.456Z,97451.34
2022-09-28T08:29:43.359Z,97456.34
2022-09-28T08:32:10.636Z,97468.88
2022-09-28T08:34:41.205Z,97458.66
2022-09-28T08:37:09.361Z,97467.06
2022-09-28T08:39:36.667Z,97466.31
2022-09-28T08:42:08.752Z,97468.69
2022-09-28T08:48:13.699Z,97481.94
2022-09-28T08:50:52.807Z,97485.16
2022-09-28T08:54:06.982Z,97486.09
2022-09-28T08:56:41.076Z,97480.94
2022-09-28T08:59:41.792Z,97488.25
2022-09-28T09:02:16.610Z,97476.63
2022-09-28T09:04:43.351Z,97491.41
2022-09-28T09:07:12.358Z,97491.41
2022-09-28T09:09:56.226Z,97486.34
2022-09-28T09:12:36.685Z,97493.81
2022-09-28T09:15:22.296Z,97491.88
2022-09-28T09:17:57.519Z,97492.25
2022-09-28T09:20:23.893Z,97495.03
2022-09-28T09:23:01.140Z,97495.66
2022-09-28T09:25:47.105Z,97487.97
2022-09-28T09:28:39.342Z,97498.69
2022-09-28T09:31:30.602Z,97493.97
2022-09-28T09:34:30.619Z,97500.25
2022-09-28T09:37:41.780Z,97502.19
2022-09-28T09:40:29.001Z,97513.19
2022-09-28T09:42:55.401Z,97503.56
2022-09-28T09:45:34.192Z,97507.22
2022-09-28T09:48:03.567Z,97501.22
2022-09-28T09:50:32.053Z,97491.75
2022-09-28T09:53:26.045Z,97497.56
2022-09-28T09:55:59.996Z,97500.66
2022-09-28T09:58:35.344Z,97509.22
2022-09-28T10:01:11.711Z,97506.53
2022-09-28T10:03:42.913Z,97494.03
2022-09-28T10:06:19.652Z,97484.16
2022-09-28T10:08:50.309Z,97491.41
2022-09-28T10:11:19.321Z,97495.78
2022-09-28T10:13:48.389Z,97493.84
2022-09-28T10:16:18.155Z,97487.56
2022-09-28T10:18:45.185Z,97506.63
2022-09-28T10:21:15.668Z,97502.75
2022-09-28T10:23:42.724Z,97500.22
2022-09-28T10:26:15.665Z,97508.66
2022-09-28T10:28:54.129Z,97501.16
2022-09-28T10:31:40.981Z,97494.56
2022-09-28T10:34:10.903Z,97492.41
2022-09-28T10:37:00.892Z,97493.81
2022-09-28T10:39:37.567Z,97486.09
2022-09-28T10:42:10.132Z,97472.28
2022-09-28T10:44:53.848Z,97490.78
2022-09-28T10:47:24.303Z,97493.78
2022-09-28T10:49:53.445Z,97489.22
2022-09-28T10:52:38.601Z,97486.53
2022-09-28T10:55:32.204Z,97494.03
2022-09-28T10:58:24.085Z,97494.97
2022-09-28T11:00:52.615Z,97491.63
2022-09-28T11:03:28.198Z,97488.28
2022-09-28T11:06:02.115Z,97491.84
2022-09-28T11:08:41.975Z,97497.75
2022-09-28T11:11:14.583Z,97492.53
2022-09-28T11:13:47.184Z,97495.69
2022-09-28T11:16:23.983Z,97495.00
2022-09-28T11:18:50.678Z,97498.22
2022-09-28T11:21:23.123Z,97504.38
2022-09-28T11:24:01.572Z,97500.81
2022-09-28T11:26:36.507Z,97499.16
2022-09-28T11:29:04.023Z,97497.41
2022-09-28T11:31:31.552Z,97500.09
2022-09-28T11:34:16.800Z,97504.97
2022-09-28T11:36:58.420Z,97502.66
2022-09-28T11:39:46.243Z,97505.75
2022-09-28T11:42:31.792Z,97514.53
2022-09-28T11:45:16.247Z,97500.63
2022-09-28T11:48:11.960Z,97500.13
2022-09-28T11:50:56.820Z,97490.59
2022-09-28T11:53:31.517Z,97494.72
2022-09-28T11:56:31.337Z,97487.88
2022-09-28T11:59:04.696Z,97483.50
2022-09-28T12:01:41.046Z,97479.28
2022-09-28T12:04:16.766Z,97487.34
2022-09-28T12:07:21.193Z,97502.00
2022-09-28T12:09:58.461Z,97500.69
2022-09-28T12:12:28.956Z,97494.81
2022-09-28T12:14:59.738Z,97498.88
2022-09-28T12:17:42.760Z,97494.19
2022-09-28T12:20:22.630Z,97487.63
2022-09-28T12:23:01.324Z,97478.38
2022-09-28T12:25:33.471Z,97479.88
2022-09-28T12:28:05.581Z,97476.75
2022-09-28T12:30:40.647Z,97477.19
2022-09-28T12:33:15.198Z,97478.56
2022-09-28T12:36:08.021Z,97476.88
2022-09-28T12:38:34.363Z,97477.88
2022-09-28T12:41:31.230Z,97483.78
2022-09-28T12:44:04.692Z,97479.31
2022-09-28T12:46:37.275Z,97479.47
2022-09-28T12:50:01.808Z,97488.50
2022-09-28T12:52:13.323Z,97497.50
2022-09-28T12:55:02.133Z,97497.41
2022-09-28T12:57:39.006Z,97499.91
2022-09-28T13:00:08.843Z,97495.59
2022-09-28T13:03:00.987Z,97493.97
2022-09-28T13:05:58.605Z,97490.94
2022-09-28T13:09:13.215Z,97492.06
2022-09-28T13:12:12.048Z,97483.84
2022-09-28T13:15:01.300Z,97484.97
2022-09-28T13:17:46.778Z,97481.06
2022-09-28T13:20:35.710Z,97486.69
2022-09-28T13:23:15.020Z,97485.72
2022-09-28T13:25:50.297Z,97491.75
2022-09-28T13:28:24.979Z,97483.09
2022-09-28T13:30:56.745Z,97481.25
2022-09-28T13:33:38.225Z,97479.78
2022-09-28T13:36:27.349Z,97475.84
2022-09-28T13:38:59.375Z,97480.84
2022-09-28T13:41:31.577Z,97481.28
2022-09-28T13:44:13.186Z,97486.44
2022-09-28T13:46:58.686Z,97484.00
2022-09-28T13:49:37.939Z,97476.53
2022-09-28T13:52:42.267Z,97480.25
2022-09-28T13:55:32.797Z,97491.81
2022-09-28T13:58:05.640Z,97503.16
2022-09-28T14:00:45.621Z,97499.34
2022-09-28T14:03:42.865Z,97510.47
2022-09-28T14:06:31.904Z,97511.13
2022-09-28T14:09:09.856Z,97512.38
2022-09-28T14:11:36.684Z,97506.63
2022-09-28T14:14:13.710Z,97499.56
2022-09-28T14:16:44.268Z,97494.44
2022-09-28T14:19:24.534Z,97509.75
2022-09-28T14:22:08.110Z,97505.63
2022-09-28T14:24:56.792Z,97507.91
2022-09-28T14:27:44.375Z,97495.09
2022-09-28T14:30:13.656Z,97500.34
2022-09-28T14:32:58.391Z,97498.28
2022-09-28T14:35:33.568Z,97495.81
2022-09-28T14:38:46.180Z,97501.19
2022-09-28T14:41:34.370Z,97501.59
2022-09-28T14:44:16.071Z,97496.41
2022-09-28T14:46:47.051Z,97494.72
2022-09-28T14:49:19.681Z,97487.69
2022-09-28T14:52:02.058Z,97495.16
2022-09-28T14:54:39.092Z,97498.25
2022-09-28T14:57:16.052Z,97503.03
2022-09-28T14:59:46.065Z,97498.06
2022-09-28T15:02:14.934Z,97501.75
2022-09-28T15:04:47.086Z,97501.75
2022-09-28T15:07:26.843Z,97502.16
2022-09-28T15:09:55.934Z,97501.78
2022-09-28T15:12:31.620Z,97509.00
2022-09-28T15:15:08.330Z,97508.41
2022-09-28T15:17:39.822Z,97509.66
2022-09-28T15:20:25.438Z,97505.28
2022-09-28T15:22:57.185Z,97501.13
2022-09-28T15:25:26.327Z,97505.47
2022-09-28T15:28:06.421Z,97507.75
2022-09-28T15:30:34.987Z,97515.63
2022-09-28T15:33:22.912Z,97512.72
2022-09-28T15:36:01.948Z,97495.97
2022-09-28T15:38:29.128Z,97503.84
2022-09-28T15:40:56.097Z,97509.63
2022-09-28T15:43:27.058Z,97506.69
2022-09-28T15:46:02.593Z,97510.63
2022-09-28T15:48:51.970Z,97514.97
2022-09-28T15:51:21.238Z,97521.19
2022-09-28T15:53:58.310Z,97518.31
2022-09-28T15:56:26.040Z,97519.13
2022-09-28T15:59:25.399Z,97523.22
2022-09-28T16:02:10.235Z,97517.41
2022-09-28T16:04:54.053Z,97525.00
2022-09-28T16:07:35.573Z,97529.94
2022-09-28T16:10:13.928Z,97528.84
2022-09-28T16:12:42.121Z,97532.97
2022-09-28T16:15:34.411Z,97537.84
2022-09-28T16:18:06.763Z,97535.06
2022-09-28T16:20:38.392Z,97532.75
2022-09-28T16:23:33.253Z,97541.81
2022-09-28T16:26:09.487Z,97546.63
2022-09-28T16:28:38.892Z,97554.19
2022-09-28T16:31:14.402Z,97548.13
2022-09-28T16:33:46.644Z,97550.56
2022-09-28T16:36:16.849Z,97551.25
2022-09-28T16:38:47.520Z,97551.91
2022-09-28T16:41:21.038Z,97561.75
2022-09-28T16:43:56.078Z,97562.13
2022-09-28T16:46:29.178Z,97567.34
2022-09-28T16:48:55.725Z,97570.47
2022-09-28T16:51:23.171Z,97575.13
2022-09-28T16:54:08.594Z,97593.63
2022-09-28T16:56:36.632Z,97611.94
2022-09-28T16:59:03.843Z,97618.81
2022-09-28T17:01:31.461Z,97624.72
2022-09-28T17:03:58.070Z,97616.94
2022-09-28T17:06:25.572Z,97630.53
2022-09-28T17:08:52.525Z,97632.72
2022-09-28T17:11:24.006Z,97637.50
2022-09-28T17:13:51.646Z,97639.34
2022-09-28T17:19:19.171Z,97645.47
2022-09-28T17:21:46.436Z,97647.19
2022-09-28T17:24:13.140Z,97653.38
2022-09-28T17:26:43.951Z,97660.47
2022-09-28T17:29:14.911Z,97658.13
2022-09-28T17:31:43.239Z,97655.41
2022-09-28T17:34:10.862Z,97662.50
2022-09-28T17:36:37.736Z,97660.63
2022-09-28T17:39:05.063Z,97665.88
2022-09-28T17:41:32.164Z,97669.56
2022-09-28T17:44:02.942Z,97674.16
2022-09-28T17:46:29.641Z,97687.16
2022-09-28T17:48:59.384Z,97682.00
2022-09-28T17:51:31.027Z,97689.72
2022-09-28T17:53:57.989Z,97683.03
2022-09-28T17:56:29.680Z,97693.22
2022-09-28T17:59:00.795Z,97696.22
2022-09-28T18:01:33.654Z,97694.88
2022-09-28T18:04:02.140Z,97701.78
2022-09-28T18:06:28.931Z,97690.06
2022-09-28T18:08:55.538Z,97701.59
2022-09-28T18:11:22.267Z,97705.50
2022-09-28T18:13:48.742Z,97707.13
2022-09-28T18:16:15.480Z,97708.81
2022-09-28T18:18:42.194Z,97708.66
2022-09-28T18:21:09.110Z,97710.84
2022-09-28T18:23:37.474Z,97714.00
2022-09-28T18:26:04.905Z,97716.38
2022-09-28T18:28:31.413Z,97717.38
2022-09-28T18:30:58.085Z,97721.03
2022-09-28T18:33:24.506Z,97722.53
2022-09-28T18:35:54.890Z,97724.88
2022-09-28T18:38:21.510Z,97724.88
2022-09-28T18:40:48.369Z,97729.25
2022-09-28T18:43:15.801Z,97731.06
2022-09-28T18:45:42.225Z,97727.59
2022-09-28T18:48:08.792Z,97726.75
2022-09-28T18:50:35.294Z,97731.25
2022-09-28T18:53:11.895Z,97735.63
2022-09-28T18:55:42.749Z,97736.97
2022-09-28T18:58:10.926Z,97743.00
2022-09-28T19:00:39.309Z,97740.81
2022-09-28T19:03:07.144Z,97744.69
2022-09-28T19:05:35.068Z,97737.66
2022-09-28T19:08:02.286Z,97734.16
2022-09-28T19:10:28.807Z,97739.53
2022-09-28T19:12:55.314Z,97735.31
2022-09-28T19:15:22.681Z,97733.00
2022-09-28T19:17:52.405Z,97730.00
2022-09-28T19:20:18.835Z,97735.72
2022-09-28T19:22:49.367Z,97734.38
2022-09-28T19:25:15.898Z,97735.41
2022-09-28T19:27:42.391Z,97733.38
2022-09-28T19:30:09.385Z,97738.75
2022-09-28T19:32:35.965Z,97734.72
2022-09-28T19:35:03.845Z,97742.44
2022-09-28T19:37:31.553Z,97744.94
2022-09-28T19:39:59.184Z,97738.59
2022-09-28T19:42:26.156Z,97743.78
2022-09-28T19:44:52.685Z,97743.13
2022-09-28T19:47:21.484Z,97752.63
2022-09-28T19:49:49.010Z,97747.47
2022-09-28T19:52:16.552Z,97753.50
2022-09-28T19:54:56.322Z,97754.00
2022-09-28T19:57:24.772Z,97759.66
2022-09-28T19:59:53.748Z,97755.16
2022-09-28T20:02:21.757Z,97752.31
2022-09-28T20:04:48.739Z,97757.16
2022-09-28T20:07:15.461Z,97755.47
2022-09-28T20:09:42.198Z,97753.34
2022-09-28T20:12:08.863Z,97755.47
2022-09-28T20:14:38.256Z,97755.63
2022-09-28T20:17:06.922Z,97753.19
2022-09-28T20:19:33.485Z,97761.53
2022-09-28T20:22:02.849Z,97754.84
2022-09-28T20:24:29.886Z,97760.19
2022-09-28T20:26:56.510Z,97767.56
2022-09-28T20:29:24.192Z,97763.06
2022-09-28T20:31:51.690Z,97771.25
2022-09-28T20:34:18.197Z,97778.91
2022-09-28T20:36:44.972Z,97777.22
2022-09-28T20:39:12.036Z,97774.56
2022-09-28T20:41:39.743Z,97773.75
2022-09-28T20:44:06.906Z,97768.22
2022-09-28T20:46:35.527Z,97770.22
2022-09-28T20:49:02.564Z,97773.56
2022-09-28T20:51:29.213Z,97765.84
2022-09-28T20:53:57.228Z,97768.84
2022-09-28T20:56:27.683Z,97769.22
2022-09-28T20:58:55.351Z,97765.03
2022-09-28T21:01:26.725Z,97763.56
2022-09-28T21:03:56.501Z,97763.56
2022-09-28T21:06:26.184Z,97768.91
2022-09-28T21:08:52.839Z,97765.91
2022-09-28T21:11:22.151Z,97772.41
2022-09-28T21:13:52.444Z,97764.38
2022-09-28T21:16:19.122Z,97768.91
2022-09-28T21:18:46.058Z,97766.41
2022-09-28T21:21:14.617Z,97763.56
2022-09-28T21:23:41.237Z,97766.53
2022-09-28T21:26:13.045Z,97768.56
2022-09-28T21:28:40.264Z,97768.72
2022-09-28T21:31:09.998Z,97770.06
2022-09-28T21:33:37.188Z,97768.56
2022-09-28T21:36:06.301Z,97766.91
2022-09-28T21:38:32.893Z,97768.06
2022-09-28T21:40:59.989Z,97767.56
2022-09-28T21:43:28.314Z,97763.75
2022-09-28T21:45:56.294Z,97767.22
2022-09-28T21:48:24.405Z,97760.69
2022-09-28T21:50:56.051Z,97766.91
2022-09-28T21:53:24.276Z,97759.88
2022-09-28T21:55:53.357Z,97758.72
2022-09-28T21:58:23.086Z,97762.22
2022-09-28T22:00:55.632Z,97767.91
2022-09-28T22:03:24.592Z,97764.22
2022-09-28T22:05:52.241Z,97768.72
2022-09-28T22:08:19.735Z,97768.56
2022-09-28T22:10:46.424Z,97761.88
2022-09-28T22:13:12.803Z,97763.91
2022-09-28T22:15:39.469Z,97767.72
2022-09-28T22:18:06.297Z,97763.22
2022-09-28T22:20:32.703Z,97771.56
2022-09-28T22:22:59.405Z,97773.56
2022-09-28T22:25:25.775Z,97778.09
2022-09-28T22:27:52.195Z,97772.91
2022-09-28T22:30:18.704Z,97769.59
2022-09-28T22:32:45.069Z,97771.22
2022-09-28T22:35:11.600Z,97772.59
2022-09-28T22:37:38.211Z,97769.56
2022-09-28T22:40:05.227Z,97766.25
2022-09-28T22:42:32.550Z,97768.91
2022-09-28T22:44:58.934Z,97769.56
2022-09-28T22:47:25.495Z,97766.91
2022-09-28T22:49:52.003Z,97768.91
2022-09-28T22:52:18.587Z,97778.59
2022-09-28T22:54:45.627Z,97771.06
2022-09-28T22:57:12.122Z,97773.09
2022-09-28T22:59:38.563Z,97771.06
2022-09-28T23:02:05.231Z,97777.75
2022-09-28T23:04:31.895Z,97779.25
2022-09-28T23:06:58.335Z,97775.91
2022-09-28T23:09:24.901Z,97769.88
2022-09-28T23:11:51.261Z,97765.84
2022-09-28T23:14:17.677Z,97760.88
2022-09-28T23:16:44.067Z,97778.53
2022-09-28T23:19:10.512Z,97772.53
2022-09-28T23:21:37.146Z,97773.00
2022-09-28T23:24:03.956Z,97771.16
2022-09-28T23:26:32.646Z,97770.50
2022-09-28T23:28:59.767Z,97770.66
2022-09-28T23:31:29.111Z,97772.13
2022-09-28T23:33:59.218Z,97771.94
2022-09-28T23:36:26.192Z,97766.09
2022-09-28T23:38:52.925Z,97768.41
2022-09-28T23:41:19.527Z,97771.72
2022-09-28T23:43:45.977Z,97770.72
2022-09-28T23:46:12.487Z,97775.69
2022-09-28T23:48:39.170Z,97781.81
2022-09-28T23:51:05.906Z,97777.28
2022-09-28T23:53:32.282Z,97779.75
2022-09-28T23:56:00.168Z,97788.72
2022-09-28T23:58:27.483Z,97784.56
